METAR Data
IDs: Format: Raw Decoded Include TAF

Data at: 1216 UTC 17 Sep 2019

METAR for:PACD (Cold Bay Arpt, AK, US)
Text:PACD 171204Z AUTO 15026G35KT 10SM SCT005 13/12 A2965 RMK AO2 PK WND 14035/1201 T01280117 TSNO
Temperature: 12.8°C ( 55°F)
Dewpoint: 11.7°C ( 53°F) [RH = 93%]
Pressure (altimeter):29.65 inches Hg (1004.1 mb)
Winds:from the SSE (150 degrees) at 30 MPH (26 knots; 13.4 m/s) gusting to 40 MPH (35 knots; 18.0 m/s)
Visibility:10 or more sm (16+ km)
Ceiling:at least 12,000 feet AGL
Clouds: scattered clouds at 500 feet AGL
QC Flag:automated observation with no human augmentation
Text:PACD 171153Z AUTO 15026G35KT 9SM BKN005 BKN100 13/12 A2962 RMK AO2 PK WND 14036/1105 SLP031 60001 70004 T01280117 10128 20100 56022 TSNO
Temperature: 12.8°C ( 55°F)
Dewpoint: 11.7°C ( 53°F) [RH = 93%]
Pressure (altimeter):29.62 inches Hg (1003.1 mb) [Sea level pressure: 1003.1 mb]
Winds:from the SSE (150 degrees) at 30 MPH (26 knots; 13.4 m/s) gusting to 40 MPH (35 knots; 18.0 m/s)
Visibility: 9 sm ( 14 km)
Ceiling:500 feet AGL
Clouds: broken clouds at 500 feet AGL, broken clouds at 10000 feet AGL
QC Flag:automated observation with no human augmentation
Text:PACD 171148Z AUTO 15027G35KT 8SM BKN005 BKN095 13/12 A2962 RMK AO2 PK WND 14036/1105 TSNO
Temperature: 13.0°C ( 55°F)
Dewpoint: 12.0°C ( 54°F) [RH = 94%]
Pressure (altimeter):29.62 inches Hg (1003.1 mb)
Winds:from the SSE (150 degrees) at 31 MPH (27 knots; 13.9 m/s) gusting to 40 MPH (35 knots; 18.0 m/s)
Visibility: 8 sm ( 13 km)
Ceiling:500 feet AGL
Clouds: broken clouds at 500 feet AGL, broken clouds at 9500 feet AGL
QC Flag:automated observation with no human augmentation
Text:PACD 171123Z AUTO 15028G35KT 10SM FEW005 SCT040 BKN095 13/12 A2964 RMK AO2 PK WND 14036/1105 T01280117 TSNO
Temperature: 12.8°C ( 55°F)
Dewpoint: 11.7°C ( 53°F) [RH = 93%]
Pressure (altimeter):29.64 inches Hg (1003.8 mb)
Winds:from the SSE (150 degrees) at 32 MPH (28 knots; 14.4 m/s) gusting to 40 MPH (35 knots; 18.0 m/s)
Visibility:10 or more sm (16+ km)
Ceiling:9500 feet AGL
Clouds: few clouds at 500 feet AGL, scattered clouds at 4000 feet AGL, broken clouds at 9500 feet AGL
QC Flag:automated observation with no human augmentation
Text:PACD 171053Z AUTO 11013G26KT 6SM BR OVC004 12/11 A2966 RMK AO2 PK WND 15030/1019 RAE01 PRESFR SLP044 P0000 T01170106 TSNO
Temperature: 11.7°C ( 53°F)
Dewpoint: 10.6°C ( 51°F) [RH = 93%]
Pressure (altimeter):29.66 inches Hg (1004.5 mb) [Sea level pressure: 1004.4 mb]
Winds:from the ESE (110 degrees) at 15 MPH (13 knots; 6.7 m/s) gusting to 30 MPH (26 knots; 13.4 m/s)
Visibility: 6 sm ( 10 km)
Ceiling:400 feet AGL
Clouds: overcast cloud deck at 400 feet AGL
Weather:BR (mist)
QC Flag:automated observation with no human augmentation
Text:PACD 171039Z AUTO 12022G28KT 5SM BR BKN005 OVC043 12/11 A2970 RMK AO2 PK WND 15030/1019 RAE01 P0000 T01170106 TSNO
Temperature: 11.7°C ( 53°F)
Dewpoint: 10.6°C ( 51°F) [RH = 93%]
Pressure (altimeter):29.70 inches Hg (1005.8 mb)
Winds:from the ESE (120 degrees) at 25 MPH (22 knots; 11.3 m/s) gusting to 32 MPH (28 knots; 14.4 m/s)
Visibility: 5 sm ( 8 km)
Ceiling:500 feet AGL
Clouds: broken clouds at 500 feet AGL, overcast cloud deck at 4300 feet AGL
Weather:BR (mist)
QC Flag:automated observation with no human augmentation
Text:PACD 170953Z AUTO 13020G29KT 8SM -RA SCT005 SCT035 OVC110 11/10 A2969 RMK AO2 PK WND 13030/0941 RAE25B38 SLP053 P0001 T01110100 TSNO
Temperature: 11.1°C ( 52°F)
Dewpoint: 10.0°C ( 50°F) [RH = 93%]
Pressure (altimeter):29.69 inches Hg (1005.5 mb) [Sea level pressure: 1005.3 mb]
Winds:from the SE (130 degrees) at 23 MPH (20 knots; 10.3 m/s) gusting to 33 MPH (29 knots; 14.9 m/s)
Visibility: 8 sm ( 13 km)
Ceiling:11000 feet AGL
Clouds: scattered clouds at 500 feet AGL, scattered clouds at 3500 feet AGL, overcast cloud deck at 11000 feet AGL
Weather:-RA (light rain)
QC Flag:automated observation with no human augmentation
Text:PACD 170934Z AUTO 14022G29KT 7SM SCT005 OVC100 11/10 A2970 RMK AO2 PK WND 15029/0932 RAE25 P0001 T01110100 TSNO
Temperature: 11.1°C ( 52°F)
Dewpoint: 10.0°C ( 50°F) [RH = 93%]
Pressure (altimeter):29.70 inches Hg (1005.8 mb)
Winds:from the SE (140 degrees) at 25 MPH (22 knots; 11.3 m/s) gusting to 33 MPH (29 knots; 14.9 m/s)
Visibility: 7 sm ( 11 km)
Ceiling:10000 feet AGL
Clouds: scattered clouds at 500 feet AGL, overcast cloud deck at 10000 feet AGL
QC Flag:automated observation with no human augmentation
Text:PACD 170853Z AUTO 13024G31KT 5SM -RA BR OVC004 11/09 A2972 RMK AO2 PK WND 13031/0849 RAB45 SLP065 P0000 60000 T01060094 401500100 55024 TSNO
Temperature: 10.6°C ( 51°F)
Dewpoint: 9.4°C ( 49°F) [RH = 92%]
Pressure (altimeter):29.72 inches Hg (1006.5 mb) [Sea level pressure: 1006.5 mb]
Winds:from the SE (130 degrees) at 28 MPH (24 knots; 12.3 m/s) gusting to 36 MPH (31 knots; 15.9 m/s)
Visibility: 5 sm ( 8 km)
Ceiling:400 feet AGL
Clouds: overcast cloud deck at 400 feet AGL
Weather:-RA BR (light rain, mist)
QC Flag:automated observation with no human augmentation
Text:PACD 170840Z AUTO 14022G31KT 5SM BR OVC004 11/09 A2972 RMK AO2 PK WND 14031/0809 CIG 003V007 T01060094 TSNO
Temperature: 10.6°C ( 51°F)
Dewpoint: 9.4°C ( 49°F) [RH = 92%]
Pressure (altimeter):29.72 inches Hg (1006.5 mb)
Winds:from the SE (140 degrees) at 25 MPH (22 knots; 11.3 m/s) gusting to 36 MPH (31 knots; 15.9 m/s)
Visibility: 5 sm ( 8 km)
Ceiling:400 feet AGL
Clouds: overcast cloud deck at 400 feet AGL
Weather:BR (mist)
QC Flag:automated observation with no human augmentation
Text:PACD 170753Z AUTO 13022G30KT 6SM BR FEW003 BKN006 OVC044 10/09 A2972 RMK AO2 PK WND 15036/0718 PRESFR SLP064 T01000089 TSNO
Temperature: 10.0°C ( 50°F)
Dewpoint: 8.9°C ( 48°F) [RH = 93%]
Pressure (altimeter):29.72 inches Hg (1006.5 mb) [Sea level pressure: 1006.4 mb]
Winds:from the SE (130 degrees) at 25 MPH (22 knots; 11.3 m/s) gusting to 34 MPH (30 knots; 15.4 m/s)
Visibility: 6 sm ( 10 km)
Ceiling:600 feet AGL
Clouds: few clouds at 300 feet AGL, broken clouds at 600 feet AGL, overcast cloud deck at 4400 feet AGL
Weather:BR (mist)
QC Flag:automated observation with no human augmentation
Text:PACD 170716Z AUTO 15028G35KT 8SM FEW005 BKN044 OVC070 11/09 A2975 RMK AO2 PK WND 14036/0656 T01060089 TSNO
Temperature: 10.6°C ( 51°F)
Dewpoint: 8.9°C ( 48°F) [RH = 89%]
Pressure (altimeter):29.75 inches Hg (1007.5 mb)
Winds:from the SSE (150 degrees) at 32 MPH (28 knots; 14.4 m/s) gusting to 40 MPH (35 knots; 18.0 m/s)
Visibility: 8 sm ( 13 km)
Ceiling:4400 feet AGL
Clouds: few clouds at 500 feet AGL, broken clouds at 4400 feet AGL, overcast cloud deck at 7000 feet AGL
QC Flag:automated observation with no human augmentation
Text:PACD 170653Z AUTO 13025G33KT 10SM OVC060 11/09 A2975 RMK AO2 PK WND 14033/0649 RAB02E12 SLP074 P0000 T01110094 TSNO
Temperature: 11.1°C ( 52°F)
Dewpoint: 9.4°C ( 49°F) [RH = 89%]
Pressure (altimeter):29.75 inches Hg (1007.5 mb) [Sea level pressure: 1007.4 mb]
Winds:from the SE (130 degrees) at 29 MPH (25 knots; 12.9 m/s) gusting to 38 MPH (33 knots; 17.0 m/s)
Visibility:10 or more sm (16+ km)
Ceiling:6000 feet AGL
Clouds: overcast cloud deck at 6000 feet AGL
QC Flag:automated observation with no human augmentation

TAF for:PACD (Cold Bay Arpt, AK, US) issued at 1153 UTC 17 Sep 2019
Text:PACD 171153Z 1712/1812 15028G35KT P6SM BKN005 BKN040 BKN100 WS020/19035KT
Forecast period:1200 to 1500 UTC 17 September 2019
Forecast type:FROM: standard forecast or significant change
Winds:from the SSE (150 degrees) at 32 MPH (28 knots; 14.4 m/s) gusting to 40 MPH (35 knots; 18.0 m/s)
Visibility:6 or more sm (10+ km)
Ceiling:500 feet AGL
Clouds: broken clouds at 500 feet AGL, broken clouds at 4000 feet AGL, broken clouds at 10000 feet AGL
Wind Shear:190 degrees at 35 knots at 2000 feet AGL
Text:FM171500 16020G28KT 4SM -RA BR OVC010
Forecast period:1500 UTC 17 September 2019 to 0300 UTC 18 September 2019
Forecast type:FROM: standard forecast or significant change
Winds:from the SSE (160 degrees) at 23 MPH (20 knots; 10.3 m/s) gusting to 32 MPH (28 knots; 14.4 m/s)
Visibility: 4 sm ( 6 km)
Ceiling:1000 feet AGL
Clouds: overcast cloud deck at 1000 feet AGL
Weather:-RA BR (light rain, mist)
Text:FM180300 18030G40KT P6SM -RA OVC015
Forecast period:0300 to 1200 UTC 18 September 2019
Forecast type:FROM: standard forecast or significant change
Winds:from the S (180 degrees) at 34 MPH (30 knots; 15.4 m/s) gusting to 46 MPH (40 knots; 20.6 m/s)
Visibility:6 or more sm (10+ km)
Ceiling:1500 feet AGL
Clouds: overcast cloud deck at 1500 feet AGL
Weather:-RA (light rain)